createdAt,value
2022-11-24T00:04:04.746Z,14.68
2022-11-24T00:09:06.757Z,14.75
2022-11-24T00:14:08.428Z,12.35
2022-11-24T00:19:10.385Z,13.23
2022-11-24T00:24:12.387Z,13.95
2022-11-24T00:29:14.158Z,14.33
2022-11-24T00:34:15.861Z,14.40
2022-11-24T00:39:17.668Z,12.25
2022-11-24T00:44:19.324Z,12.57
2022-11-24T00:49:21.025Z,12.37
2022-11-24T00:54:22.734Z,12.70
2022-11-24T00:59:24.393Z,13.75
2022-11-24T01:04:26.097Z,13.95
2022-11-24T01:09:27.829Z,13.53
2022-11-24T01:14:31.451Z,13.57
2022-11-24T01:19:33.459Z,13.17
2022-11-24T01:24:35.452Z,13.93
2022-11-24T01:29:37.476Z,10.48
2022-11-24T01:34:42.023Z,12.40
2022-11-24T01:39:43.696Z,13.43
2022-11-24T01:44:45.498Z,12.93
2022-11-24T01:49:51.855Z,13.20
2022-11-24T01:55:00.672Z,12.97
2022-11-24T02:00:07.665Z,12.37
2022-11-24T02:05:26.400Z,12.13
2022-11-24T02:10:29.113Z,12.37
2022-11-24T02:15:30.948Z,12.40
2022-11-24T02:20:34.146Z,11.70
2022-11-24T02:25:40.585Z,11.93
2022-11-24T02:30:42.576Z,11.07
2022-11-24T02:35:44.319Z,10.97
2022-11-24T02:40:49.759Z,11.23
2022-11-24T02:45:51.459Z,10.65
2022-11-24T02:50:53.185Z,10.03
2022-11-24T02:55:54.854Z,9.80
2022-11-24T03:00:57.352Z,8.98
2022-11-24T03:05:59.034Z,8.68
2022-11-24T03:11:02.947Z,10.32
2022-11-24T03:16:08.524Z,8.98
2022-11-24T03:21:10.206Z,8.53
2022-11-24T03:26:14.854Z,9.50
2022-11-24T03:31:16.701Z,8.88
2022-11-24T03:36:18.739Z,9.40
2022-11-24T03:41:20.466Z,8.95
2022-11-24T03:46:22.213Z,9.73
2022-11-24T03:51:23.902Z,9.00
2022-11-24T03:56:25.568Z,9.70
2022-11-24T04:01:27.315Z,9.68
2022-11-24T04:06:29.060Z,8.98
2022-11-24T04:11:48.987Z,8.57
2022-11-24T04:16:50.649Z,9.37
2022-11-24T04:21:52.329Z,8.53
2022-11-24T04:26:54.543Z,8.83
2022-11-24T04:31:56.245Z,9.33
2022-11-24T04:36:57.983Z,8.80
2022-11-24T04:41:59.887Z,8.50
2022-11-24T04:47:01.606Z,10.00
2022-11-24T04:52:03.382Z,8.33
2022-11-24T04:57:05.051Z,9.40
2022-11-24T05:02:06.787Z,7.87
2022-11-24T05:07:18.268Z,8.90
2022-11-24T05:12:20.582Z,8.23
2022-11-24T05:17:22.231Z,7.97
2022-11-24T05:22:24.476Z,8.13
2022-11-24T05:27:26.172Z,8.87
2022-11-24T05:32:28.043Z,8.17
2022-11-24T05:37:29.807Z,8.00
2022-11-24T05:42:46.162Z,8.00
2022-11-24T05:47:50.701Z,7.13
2022-11-24T05:52:52.451Z,8.30
2022-11-24T05:58:06.083Z,8.47
2022-11-24T06:03:09.984Z,10.10
2022-11-24T06:08:11.792Z,8.77
2022-11-24T06:13:13.485Z,9.57
2022-11-24T06:18:15.416Z,8.13
2022-11-24T06:23:17.088Z,9.10
2022-11-24T06:28:18.738Z,8.07
2022-11-24T06:33:20.775Z,9.20
2022-11-24T06:38:24.411Z,9.80
2022-11-24T06:43:27.982Z,10.35
2022-11-24T06:48:30.509Z,10.93
2022-11-24T06:53:37.971Z,11.80
2022-11-24T06:58:44.596Z,11.87
2022-11-24T07:03:48.233Z,12.05
2022-11-24T07:08:50.836Z,11.85
2022-11-24T07:13:58.178Z,10.47
2022-11-24T07:19:01.539Z,10.90
2022-11-24T07:24:03.425Z,10.98
2022-11-24T07:29:05.502Z,11.27
2022-11-24T07:34:07.171Z,11.87
2022-11-24T07:39:08.859Z,11.93
2022-11-24T07:44:10.520Z,12.10
2022-11-24T07:49:12.247Z,11.70
2022-11-24T07:54:13.963Z,13.25
2022-11-24T07:59:15.888Z,13.03
2022-11-24T08:04:17.534Z,12.60
2022-11-24T08:09:19.205Z,13.13
2022-11-24T08:14:20.913Z,13.68
2022-11-24T08:19:22.717Z,13.40
2022-11-24T08:24:24.438Z,13.02
2022-11-24T08:29:30.017Z,13.48
2022-11-24T08:34:31.835Z,12.88
2022-11-24T08:39:33.852Z,15.85
2022-11-24T08:44:35.974Z,15.70
2022-11-24T08:49:37.906Z,16.73
2022-11-24T08:54:40.860Z,17.63
2022-11-24T08:59:42.533Z,18.50
2022-11-24T09:04:45.061Z,16.02
2022-11-24T09:09:46.766Z,17.35
2022-11-24T09:14:48.420Z,17.50
2022-11-24T09:19:50.086Z,17.98
2022-11-24T09:24:51.827Z,18.00
2022-11-24T09:29:53.572Z,18.05
2022-11-24T09:34:55.265Z,16.83
2022-11-24T09:39:56.926Z,16.33
2022-11-24T09:45:15.285Z,16.35
2022-11-24T09:50:24.164Z,16.58
2022-11-24T09:55:31.679Z,17.90
2022-11-24T10:00:34.101Z,17.17
2022-11-24T10:05:36.591Z,19.27
2022-11-24T10:10:49.090Z,21.20
2022-11-24T10:16:13.748Z,32.60
2022-11-24T10:21:33.380Z,22.45
2022-11-24T10:26:36.471Z,20.88
2022-11-24T10:31:43.520Z,21.58
2022-11-24T10:37:15.223Z,21.30
2022-11-24T10:42:33.647Z,24.00
2022-11-24T10:47:37.683Z,20.77
2022-11-24T10:52:47.782Z,22.00
2022-11-24T10:57:49.633Z,19.63
2022-11-24T11:03:12.016Z,20.63
2022-11-24T11:08:14.069Z,19.05
2022-11-24T11:13:23.704Z,16.25
2022-11-24T11:18:32.752Z,18.15
2022-11-24T11:23:36.742Z,17.48
2022-11-24T11:28:39.149Z,18.65
2022-11-24T11:34:14.460Z,19.13
2022-11-24T11:39:20.633Z,20.38
2022-11-24T11:44:25.076Z,19.58
2022-11-24T11:49:26.848Z,20.63
2022-11-24T11:54:43.113Z,18.92
2022-11-24T11:59:50.610Z,20.67
2022-11-24T12:04:56.796Z,18.17
2022-11-24T12:10:07.527Z,14.35
2022-11-24T12:15:15.399Z,12.65
2022-11-24T12:20:58.795Z,12.65
2022-11-24T12:26:29.776Z,8.00
2022-11-24T12:32:00.446Z,8.00
2022-11-24T12:37:25.188Z,3.65
2022-11-24T12:42:57.444Z,3.20
2022-11-24T12:48:13.908Z,4.25
2022-11-24T12:53:29.382Z,4.25
2022-11-24T12:58:40.010Z,4.20
2022-11-24T13:03:41.640Z,4.57
2022-11-24T13:08:43.967Z,4.28
2022-11-24T13:14:02.845Z,3.03
2022-11-24T13:19:30.472Z,4.20
2022-11-24T13:24:36.357Z,3.72
2022-11-24T13:29:40.337Z,3.72
2022-11-24T13:34:42.872Z,5.03
2022-11-24T13:39:51.570Z,8.80
2022-11-24T13:45:03.820Z,7.75
2022-11-24T13:50:45.396Z,6.95
2022-11-24T13:55:56.564Z,5.43
2022-11-24T14:01:13.640Z,4.03
2022-11-24T14:06:46.388Z,5.80
2022-11-24T14:11:58.318Z,5.20
2022-11-24T14:17:08.772Z,5.10
2022-11-24T14:22:17.578Z,4.43
2022-11-24T14:27:26.771Z,4.18
2022-11-24T14:32:28.870Z,4.70
2022-11-24T14:37:30.628Z,4.82
2022-11-24T14:42:33.317Z,4.90
2022-11-24T14:47:37.454Z,5.10
2022-11-24T14:52:46.459Z,4.72
2022-11-24T14:57:48.297Z,4.22
2022-11-24T15:03:02.115Z,5.00
2022-11-24T15:08:04.041Z,5.30
2022-11-24T15:13:16.890Z,5.72
2022-11-24T15:18:35.451Z,4.22
2022-11-24T15:23:37.875Z,5.28
2022-11-24T15:28:40.134Z,4.82
2022-11-24T15:33:42.402Z,5.53
2022-11-24T15:38:44.131Z,5.57
2022-11-24T15:43:46.595Z,6.50
2022-11-24T15:48:48.253Z,5.97
2022-11-24T15:53:55.774Z,6.85
2022-11-24T15:59:02.558Z,8.75
2022-11-24T16:04:04.390Z,6.63
2022-11-24T16:09:06.051Z,6.03
2022-11-24T16:14:08.891Z,8.40
2022-11-24T16:19:10.925Z,8.18
2022-11-24T16:24:12.611Z,7.60
2022-11-24T16:29:15.036Z,8.82
2022-11-24T16:34:16.743Z,10.20
2022-11-24T16:39:18.419Z,13.85
2022-11-24T16:44:20.117Z,16.08
2022-11-24T16:49:22.084Z,17.02
2022-11-24T16:54:23.904Z,17.70
2022-11-24T16:59:25.615Z,15.80
2022-11-24T17:04:27.264Z,16.30
2022-11-24T17:09:28.923Z,12.73
2022-11-24T17:14:30.693Z,18.90
2022-11-24T17:19:32.368Z,15.13
2022-11-24T17:24:34.254Z,13.32
2022-11-24T17:29:36.017Z,13.95
2022-11-24T17:34:37.745Z,13.20
2022-11-24T17:39:39.433Z,15.65
2022-11-24T17:44:41.089Z,15.98
2022-11-24T17:49:42.758Z,17.45
2022-11-24T17:54:46.649Z,21.25
2022-11-24T17:59:48.631Z,22.27
2022-11-24T18:04:50.329Z,17.30
2022-11-24T18:09:52.003Z,19.30
2022-11-24T18:14:53.711Z,19.30
2022-11-24T18:19:55.385Z,23.85
2022-11-24T18:24:57.038Z,16.55
2022-11-24T18:29:58.698Z,15.68
2022-11-24T18:35:00.491Z,17.88
2022-11-24T18:40:02.581Z,15.77
2022-11-24T18:45:05.375Z,18.30
2022-11-24T18:50:08.030Z,20.13
2022-11-24T18:55:10.096Z,18.92
2022-11-24T19:00:12.497Z,18.35
2022-11-24T19:05:14.304Z,17.27
2022-11-24T19:10:16.153Z,15.50
2022-11-24T19:15:17.816Z,16.45
2022-11-24T19:20:19.464Z,17.60
2022-11-24T19:25:21.310Z,15.65
2022-11-24T19:30:23.481Z,14.80
2022-11-24T19:35:25.155Z,14.65
2022-11-24T19:40:26.887Z,13.82
2022-11-24T19:45:28.840Z,13.77
2022-11-24T19:50:30.518Z,15.30
2022-11-24T19:55:32.427Z,16.65
2022-11-24T20:00:34.080Z,18.48
2022-11-24T20:05:35.715Z,19.10
2022-11-24T20:10:39.907Z,15.85
2022-11-24T20:15:41.570Z,16.73
2022-11-24T20:20:43.236Z,15.65
2022-11-24T20:25:44.906Z,16.83
2022-11-24T20:30:46.598Z,17.40
2022-11-24T20:35:48.258Z,17.20
2022-11-24T20:40:49.998Z,18.05
2022-11-24T20:45:51.678Z,16.05
2022-11-24T20:50:53.364Z,15.48
2022-11-24T20:56:06.109Z,16.70
2022-11-24T21:01:09.959Z,18.10
2022-11-24T21:06:13.335Z,15.90
2022-11-24T21:11:15.523Z,12.02
2022-11-24T21:16:20.581Z,12.48
2022-11-24T21:21:24.159Z,13.65
2022-11-24T21:26:25.813Z,12.73
2022-11-24T21:31:27.561Z,11.40
2022-11-24T21:36:31.675Z,11.07
2022-11-24T21:41:33.920Z,11.18
2022-11-24T21:46:43.584Z,11.02
2022-11-24T21:51:47.810Z,10.27
2022-11-24T21:56:49.465Z,10.00
2022-11-24T22:01:51.285Z,9.70
2022-11-24T22:06:53.510Z,8.63
2022-11-24T22:11:55.732Z,9.50
2022-11-24T22:16:57.399Z,9.35
2022-11-24T22:21:59.047Z,8.50
2022-11-24T22:27:02.927Z,7.88
2022-11-24T22:32:04.839Z,9.95
2022-11-24T22:37:06.625Z,7.05
2022-11-24T22:42:08.280Z,7.25
2022-11-24T22:47:10.075Z,7.45
2022-11-24T22:52:14.422Z,6.82
2022-11-24T22:57:16.075Z,5.95
2022-11-24T23:02:18.369Z,6.07
2022-11-24T23:07:20.119Z,5.28
2022-11-24T23:12:21.813Z,6.03
2022-11-24T23:17:23.472Z,6.75
2022-11-24T23:22:25.137Z,6.13
2022-11-24T23:27:26.836Z,6.15
2022-11-24T23:32:28.540Z,6.45
2022-11-24T23:37:52.152Z,7.43
2022-11-24T23:42:52.131Z,7.85
2022-11-24T23:47:54.178Z,6.78
2022-11-24T23:52:55.840Z,7.60
2022-11-24T23:57:57.523Z,6.72
